Ash, Missouri
Current Conditions -  °F | °C
As of 8:35 AM on Saturday 01 Nov 2014 (Local Time) from KHAE Reporting Station
Clear Clear  
Wind Chill: 32°   Ceiling: Unl
Heat Index: 32°   Visibility: 10mi
Dew Point: 23°   Wind: 0mph
Humidity: 69%   Direction: NA
Pressure: 30.49"   Gusts: NA
Location:  39.4792°N, 92.217°W
Report Text: KHAE 011335Z AUTO 00000KT 10SM CLR 00/M05 A3049 RMK AO2
Loading
Personal Weather Stations






























Interactive Weather Map
Tropical Storm Tracking
New forecast layout! Learn more

10-Day Weather Forecast

Advertisements
Track Severe Weather on mobile